createdAt,value
2022-08-19T00:02:50.116Z,39.90
2022-08-19T00:07:53.514Z,39.90
2022-08-19T00:12:56.498Z,39.90
2022-08-19T00:18:00.777Z,40.00
2022-08-19T00:23:05.049Z,40.10
2022-08-19T00:28:07.935Z,40.10
2022-08-19T00:33:12.293Z,40.10
2022-08-19T00:38:15.829Z,40.10
2022-08-19T00:43:29.484Z,40.10
2022-08-19T00:48:34.589Z,40.20
2022-08-19T00:53:37.509Z,40.20
2022-08-19T00:58:40.977Z,40.20
2022-08-19T01:03:58.268Z,40.20
2022-08-19T01:09:01.877Z,40.40
2022-08-19T01:14:05.072Z,40.30
2022-08-19T01:19:13.517Z,40.40
2022-08-19T01:24:17.829Z,40.40
2022-08-19T01:29:20.711Z,40.40
2022-08-19T01:34:24.642Z,40.40
2022-08-19T01:39:29.235Z,40.40
2022-08-19T01:44:32.183Z,40.50
2022-08-19T01:49:35.121Z,40.50
2022-08-19T01:54:39.391Z,40.60
2022-08-19T01:59:43.417Z,40.60
2022-08-19T02:04:46.797Z,40.70
2022-08-19T02:09:51.172Z,40.70
2022-08-19T02:14:54.050Z,40.70
2022-08-19T02:19:57.438Z,40.80
2022-08-19T02:25:01.972Z,40.80
2022-08-19T02:30:05.405Z,40.80
2022-08-19T02:35:12.091Z,40.90
2022-08-19T02:40:18.788Z,40.90
2022-08-19T02:45:22.107Z,40.90
2022-08-19T02:50:24.962Z,41.00
2022-08-19T02:55:29.247Z,41.10
2022-08-19T03:00:32.169Z,41.20
2022-08-19T03:05:56.129Z,41.80
2022-08-19T03:11:00.657Z,41.30
2022-08-19T03:16:06.561Z,41.40
2022-08-19T03:21:10.459Z,41.50
2022-08-19T03:26:17.306Z,41.50
2022-08-19T03:31:44.013Z,41.60
2022-08-19T03:36:45.495Z,41.60
2022-08-19T03:42:31.882Z,41.60
2022-08-19T03:47:17.063Z,41.70
2022-08-19T03:52:20.377Z,41.70
2022-08-19T03:57:32.088Z,41.80
2022-08-19T04:02:35.334Z,41.80
2022-08-19T04:07:38.219Z,41.90
2022-08-19T04:12:42.468Z,41.90
2022-08-19T04:17:45.343Z,41.90
2022-08-19T04:22:48.276Z,42.00
2022-08-19T04:27:52.555Z,42.00
2022-08-19T04:32:55.485Z,42.00
2022-08-19T04:37:58.447Z,42.00
2022-08-19T04:43:03.052Z,42.10
2022-08-19T04:48:26.547Z,42.00
2022-08-19T04:53:37.821Z,42.00
2022-08-19T04:58:43.681Z,42.20
2022-08-19T05:03:46.650Z,42.10
2022-08-19T05:08:49.915Z,42.20
2022-08-19T05:13:54.279Z,42.10
2022-08-19T05:19:14.922Z,42.20
2022-08-19T05:24:18.663Z,42.20
2022-08-19T05:29:23.250Z,42.20
2022-08-19T05:34:27.120Z,42.20
2022-08-19T05:39:30.992Z,42.20
2022-08-19T05:44:37.017Z,42.20
2022-08-19T05:49:40.314Z,42.30
2022-08-19T05:54:43.696Z,42.30
2022-08-19T05:59:49.438Z,42.30
2022-08-19T06:04:56.244Z,42.30
2022-08-19T06:10:00.765Z,42.90
2022-08-19T06:15:07.224Z,42.40
2022-08-19T06:20:12.895Z,42.40
2022-08-19T06:25:16.226Z,42.40
2022-08-19T06:30:20.767Z,42.50
2022-08-19T06:35:24.817Z,42.50
2022-08-19T06:40:28.432Z,42.60
2022-08-19T06:45:34.934Z,43.00
2022-08-19T06:50:42.313Z,43.30
2022-08-19T06:55:45.167Z,43.40
2022-08-19T07:00:49.720Z,43.50
2022-08-19T07:05:52.576Z,43.40
2022-08-19T07:10:55.496Z,43.50
2022-08-19T07:16:00.312Z,43.40
2022-08-19T07:21:09.867Z,43.50
2022-08-19T07:26:14.269Z,43.30
2022-08-19T07:31:23.077Z,43.30
2022-08-19T07:36:29.600Z,43.30
2022-08-19T07:41:33.051Z,43.20
2022-08-19T07:46:38.266Z,43.80
2022-08-19T07:51:41.171Z,43.20
2022-08-19T07:56:44.025Z,43.20
2022-08-19T08:01:48.435Z,43.20
2022-08-19T08:07:09.212Z,43.20
2022-08-19T08:12:32.981Z,43.20
2022-08-19T08:17:48.872Z,43.20
2022-08-19T08:23:11.292Z,43.20
2022-08-19T08:28:17.779Z,43.20
2022-08-19T08:33:33.112Z,43.20
2022-08-19T08:38:40.179Z,43.20
2022-08-19T08:43:47.730Z,43.20
2022-08-19T08:48:55.504Z,43.20
2022-08-19T08:53:58.512Z,43.20
2022-08-19T08:59:04.942Z,43.20
2022-08-19T09:04:09.324Z,43.20
2022-08-19T09:09:16.596Z,43.30
2022-08-19T09:14:49.335Z,43.20
2022-08-19T09:19:55.964Z,43.30
2022-08-19T09:24:58.876Z,43.30
2022-08-19T09:30:01.787Z,43.30
2022-08-19T09:35:08.837Z,43.30
2022-08-19T09:40:14.314Z,43.40
2022-08-19T09:45:21.446Z,43.30
2022-08-19T09:50:26.292Z,43.30
2022-08-19T09:55:31.038Z,43.30
2022-08-19T10:00:34.441Z,43.30
2022-08-19T10:05:55.257Z,43.30
2022-08-19T10:10:59.290Z,43.30
2022-08-19T10:16:05.859Z,43.30
2022-08-19T10:21:11.803Z,43.30
2022-08-19T10:26:16.311Z,43.20
2022-08-19T10:31:59.866Z,43.20
2022-08-19T10:36:54.393Z,43.20
2022-08-19T10:41:59.699Z,43.20
2022-08-19T10:47:02.584Z,43.20
2022-08-19T10:52:38.885Z,43.20
2022-08-19T10:58:03.815Z,43.20
2022-08-19T11:03:05.046Z,43.20
2022-08-19T11:08:21.195Z,43.40
2022-08-19T11:13:26.948Z,43.30
2022-08-19T11:18:29.888Z,43.50
2022-08-19T11:23:34.165Z,43.40
2022-08-19T11:28:37.151Z,43.40
2022-08-19T11:33:40.227Z,43.40
2022-08-19T11:38:44.495Z,43.30
2022-08-19T11:43:47.421Z,43.40
2022-08-19T11:48:51.596Z,43.40
2022-08-19T11:53:56.609Z,43.30
2022-08-19T11:58:59.539Z,43.40
2022-08-19T12:04:02.571Z,43.40
2022-08-19T12:09:08.278Z,43.40
2022-08-19T12:14:14.451Z,43.40
2022-08-19T12:19:22.323Z,43.50
2022-08-19T12:24:27.092Z,43.50
2022-08-19T12:29:30.701Z,43.50
2022-08-19T12:34:34.337Z,43.50
2022-08-19T12:39:40.532Z,43.40
2022-08-19T12:44:44.713Z,43.40
2022-08-19T12:49:54.161Z,43.40
2022-08-19T12:55:00.017Z,43.40
2022-08-19T13:00:06.005Z,43.50
2022-08-19T13:05:10.792Z,43.50
2022-08-19T13:10:17.115Z,43.70
2022-08-19T13:15:23.751Z,43.70
2022-08-19T13:20:27.175Z,43.70
2022-08-19T13:25:31.752Z,43.70
2022-08-19T13:30:52.370Z,43.90
2022-08-19T13:35:59.619Z,43.80
2022-08-19T13:41:10.983Z,43.80
2022-08-19T13:46:15.293Z,43.80
2022-08-19T13:51:18.897Z,43.70
2022-08-19T13:56:26.305Z,43.60
2022-08-19T14:01:31.426Z,43.70
2022-08-19T14:06:34.344Z,43.50
2022-08-19T14:11:39.196Z,43.50
2022-08-19T14:16:42.360Z,44.00
2022-08-19T14:21:45.272Z,43.30
2022-08-19T14:26:49.855Z,43.30
2022-08-19T14:31:52.787Z,43.50
2022-08-19T14:36:55.650Z,43.50
2022-08-19T14:42:00.075Z,43.40
2022-08-19T14:47:03.713Z,43.50
2022-08-19T14:52:07.018Z,43.50
2022-08-19T14:57:13.339Z,43.60
2022-08-19T15:02:33.329Z,43.60
2022-08-19T15:07:38.162Z,43.60
2022-08-19T15:12:43.332Z,43.70
2022-08-19T15:17:47.415Z,43.70
2022-08-19T15:22:50.355Z,43.80
2022-08-19T15:27:54.895Z,43.80
2022-08-19T15:32:58.522Z,43.80
2022-08-19T15:38:01.406Z,43.80
2022-08-19T15:43:05.732Z,43.80
2022-08-19T15:48:08.835Z,43.80
2022-08-19T15:53:12.053Z,43.70
2022-08-19T15:58:34.431Z,43.70
2022-08-19T16:03:54.489Z,43.70
2022-08-19T16:08:58.585Z,43.70
2022-08-19T16:14:03.423Z,43.70
2022-08-19T16:19:11.930Z,43.70
2022-08-19T16:24:15.724Z,43.70
2022-08-19T16:29:33.545Z,43.70
2022-08-19T16:34:39.001Z,43.70
2022-08-19T16:39:43.617Z,43.60
2022-08-19T16:44:48.557Z,43.50
2022-08-19T16:49:53.657Z,43.50
2022-08-19T16:54:58.167Z,43.40
2022-08-19T17:00:07.000Z,43.50
2022-08-19T17:05:10.772Z,43.40
2022-08-19T17:10:13.616Z,43.50
2022-08-19T17:15:17.824Z,43.40
2022-08-19T17:20:21.263Z,43.50
2022-08-19T17:25:24.441Z,43.50
2022-08-19T17:30:28.925Z,43.50
2022-08-19T17:35:31.825Z,43.50
2022-08-19T17:40:35.165Z,43.50
2022-08-19T17:45:41.225Z,43.50
2022-08-19T17:50:44.098Z,43.40
2022-08-19T17:55:50.134Z,43.50
2022-08-19T18:00:55.485Z,43.50
2022-08-19T18:05:58.596Z,43.50
2022-08-19T18:11:01.692Z,43.60
2022-08-19T18:16:07.031Z,43.50
2022-08-19T18:21:10.656Z,43.70
2022-08-19T18:26:13.657Z,43.70
2022-08-19T18:31:18.173Z,43.80
2022-08-19T18:36:50.065Z,43.90
2022-08-19T18:42:02.339Z,43.90
2022-08-19T18:47:23.948Z,44.00
2022-08-19T18:52:27.286Z,44.00
2022-08-19T18:57:30.310Z,44.00
2022-08-19T19:02:39.844Z,44.10
2022-08-19T19:07:43.028Z,44.10
2022-08-19T19:12:45.867Z,44.10
2022-08-19T19:17:50.088Z,44.10
2022-08-19T19:22:55.969Z,44.10
2022-08-19T19:28:01.304Z,44.00
2022-08-19T19:33:05.921Z,44.10
2022-08-19T19:38:08.721Z,44.00
2022-08-19T19:43:11.995Z,44.00
2022-08-19T19:48:16.562Z,44.00
2022-08-19T19:53:19.357Z,44.00
2022-08-19T19:58:28.315Z,44.00
2022-08-19T20:03:33.494Z,43.90
2022-08-19T20:08:54.007Z,43.90
2022-08-19T20:13:57.467Z,43.90
2022-08-19T20:19:02.600Z,43.80
2022-08-19T20:24:09.605Z,43.80
2022-08-19T20:29:38.392Z,43.80
2022-08-19T20:34:37.410Z,43.60
2022-08-19T20:39:40.363Z,43.70
2022-08-19T20:44:43.283Z,43.60
2022-08-19T20:49:47.459Z,43.60
2022-08-19T20:54:50.311Z,43.50
2022-08-19T20:59:53.095Z,43.50
2022-08-19T21:05:00.139Z,43.50
2022-08-19T21:10:03.251Z,43.50
2022-08-19T21:15:08.256Z,43.40
2022-08-19T21:20:12.655Z,43.40
2022-08-19T21:25:16.546Z,43.30
2022-08-19T21:30:19.580Z,43.30
2022-08-19T21:35:24.294Z,43.30
2022-08-19T21:40:27.711Z,43.30
2022-08-19T21:45:30.522Z,43.30
2022-08-19T21:50:35.175Z,43.30
2022-08-19T21:55:37.987Z,43.30
2022-08-19T22:00:40.835Z,43.30
2022-08-19T22:05:45.065Z,43.20
2022-08-19T22:10:49.060Z,43.30
2022-08-19T22:15:52.575Z,43.30
2022-08-19T22:20:56.756Z,43.30
2022-08-19T22:25:59.622Z,43.30
2022-08-19T22:31:02.585Z,43.30
2022-08-19T22:36:08.551Z,43.30
2022-08-19T22:41:11.903Z,43.30
2022-08-19T22:46:16.949Z,43.40
2022-08-19T22:51:41.262Z,43.40
2022-08-19T22:56:44.216Z,43.50
2022-08-19T23:01:47.319Z,43.50
2022-08-19T23:06:52.844Z,44.00
2022-08-19T23:11:55.666Z,43.50
2022-08-19T23:16:59.188Z,43.60
2022-08-19T23:22:05.217Z,43.60
2022-08-19T23:27:25.593Z,43.60
2022-08-19T23:32:28.382Z,43.70
2022-08-19T23:37:32.552Z,43.70
2022-08-19T23:42:35.647Z,43.70
2022-08-19T23:47:40.690Z,43.70
2022-08-19T23:52:48.309Z,43.80
2022-08-19T23:57:51.143Z,43.80
